Time;durP1;ratioP1;P1;durP2;ratioP2;P2;SDS_P1;SDS_P2;PMS_P1;PMS_P2;Temp;Humidity;BMP_temperature;BMP_pressure;BME280_temperature;BME280_humidity;BME280_pressure;Samples;Min_cycle;Max_cycle;Signal;HPM_P1;HPM_P2
2024/03/16 00:00:07;;;;;;;6.75;1.40;;;10.50;99.90;;;;;;4974535;28;20499;-88
2024/03/16 00:02:35;;;;;;;4.57;0.93;;;10.50;99.90;;;;;;4975659;28;20093;-87
2024/03/16 00:05:01;;;;;;;8.23;1.90;;;10.50;99.90;;;;;;4956745;28;20129;-87
2024/03/16 00:07:27;;;;;;;5.40;2.13;;;10.50;99.90;;;;;;4972274;28;20113;-85
2024/03/16 00:09:52;;;;;;;4.82;1.85;;;10.60;99.90;;;;;;4973517;28;20114;-85
2024/03/16 00:12:21;;;;;;;6.50;1.67;;;10.50;99.90;;;;;;4971272;28;20074;-87
2024/03/16 00:14:50;;;;;;;4.78;1.23;;;10.60;99.90;;;;;;4968910;28;20038;-88
2024/03/16 00:17:19;;;;;;;3.60;0.90;;;10.50;99.90;;;;;;4957058;28;20686;-87
2024/03/16 00:19:48;;;;;;;0.65;0.55;;;10.50;99.90;;;;;;4975010;28;20034;-88
2024/03/16 00:22:15;;;;;;;6.60;1.65;;;10.50;99.90;;;;;;4976022;28;20030;-87
2024/03/16 00:24:40;;;;;;;3.80;1.38;;;10.50;99.90;;;;;;4969680;28;20047;-86
2024/03/16 00:27:07;;;;;;;5.25;1.58;;;10.50;99.90;;;;;;4973099;28;20034;-88
2024/03/16 00:29:32;;;;;;;2.65;1.20;;;10.50;99.90;;;;;;4974224;28;20037;-88
2024/03/16 00:31:58;;;;;;;0.73;0.63;;;10.50;99.90;;;;;;4989086;28;20169;-85
2024/03/16 00:34:24;;;;;;;3.20;1.25;;;10.50;99.90;;;;;;4986453;28;20037;-84
2024/03/16 00:36:49;;;;;;;4.93;1.20;;;10.40;99.90;;;;;;4987774;28;20042;-87
2024/03/16 00:39:15;;;;;;;3.88;1.38;;;10.50;99.90;;;;;;4956110;28;20073;-85
2024/03/16 00:41:43;;;;;;;7.07;1.20;;;10.40;99.90;;;;;;4973257;28;20058;-86
2024/03/16 00:44:09;;;;;;;3.45;1.60;;;10.40;99.90;;;;;;4986778;28;20443;-87
2024/03/16 00:46:35;;;;;;;4.05;1.23;;;10.40;99.90;;;;;;4977378;28;20034;-85
2024/03/16 00:49:00;;;;;;;2.90;0.98;;;10.50;99.90;;;;;;4968932;28;20046;-85
2024/03/16 00:51:29;;;;;;;3.45;1.13;;;10.40;99.90;;;;;;4975211;28;20050;-86
2024/03/16 00:53:55;;;;;;;5.70;1.23;;;10.30;99.90;;;;;;4969886;28;20038;-84
2024/03/16 00:56:21;;;;;;;7.10;0.90;;;10.40;99.90;;;;;;4962641;28;20039;-86
2024/03/16 00:58:46;;;;;;;5.07;1.23;;;10.40;99.90;;;;;;4963776;28;20030;-85
2024/03/16 01:01:12;;;;;;;3.15;0.73;;;10.40;99.90;;;;;;4974761;28;20391;-85
2024/03/16 01:03:38;;;;;;;3.28;0.80;;;10.50;99.90;;;;;;4971367;28;20464;-85
2024/03/16 01:06:03;;;;;;;4.57;1.05;;;10.50;99.90;;;;;;4988999;28;20058;-84
2024/03/16 01:08:29;;;;;;;3.38;0.52;;;10.40;99.90;;;;;;4972461;28;20034;-82
2024/03/16 01:10:54;;;;;;;4.25;0.98;;;10.40;99.90;;;;;;4986522;28;20026;-85
2024/03/16 01:13:20;;;;;;;3.65;0.63;;;10.40;99.90;;;;;;4984843;28;20054;-86
2024/03/16 01:15:46;;;;;;;5.20;1.05;;;10.50;99.90;;;;;;4970478;28;20073;-86
2024/03/16 01:18:12;;;;;;;4.57;0.95;;;10.40;99.90;;;;;;4985336;28;20532;-86
2024/03/16 01:20:37;;;;;;;2.78;0.75;;;10.40;99.90;;;;;;4971310;28;20484;-85
2024/03/16 01:23:04;;;;;;;5.05;0.70;;;10.40;99.90;;;;;;4981150;28;20034;-85
2024/03/16 01:25:30;;;;;;;6.50;1.35;;;10.40;99.90;;;;;;4989878;28;20062;-85
2024/03/16 01:27:56;;;;;;;4.80;0.93;;;10.40;99.90;;;;;;4972734;28;20061;-85
2024/03/16 01:30:24;;;;;;;2.70;0.90;;;10.50;99.90;;;;;;4977512;28;20113;-84
2024/03/16 01:32:50;;;;;;;3.33;1.00;;;10.50;99.90;;;;;;4956189;28;20462;-85
2024/03/16 01:35:15;;;;;;;2.63;0.70;;;10.60;99.90;;;;;;4964192;28;20075;-86
2024/03/16 01:37:41;;;;;;;2.53;1.05;;;10.40;99.90;;;;;;4975659;28;20036;-83
2024/03/16 01:40:07;;;;;;;4.00;0.80;;;10.50;99.90;;;;;;4975138;28;20375;-86
2024/03/16 01:42:32;;;;;;;4.88;0.80;;;10.50;99.90;;;;;;4989628;28;20081;-85
2024/03/16 01:45:16;;;;;;;4.43;1.00;;;10.40;99.90;;;;;;4991290;28;20089;-84
2024/03/16 01:47:42;;;;;;;1.27;0.60;;;10.50;99.90;;;;;;4966998;28;20038;-85
2024/03/16 01:50:08;;;;;;;4.97;0.80;;;10.50;99.90;;;;;;4974080;28;20038;-85
2024/03/16 01:52:34;;;;;;;6.90;1.13;;;10.50;99.90;;;;;;4975923;28;20034;-83
2024/03/16 01:55:00;;;;;;;1.95;0.60;;;10.60;99.90;;;;;;4985736;28;20446;-84
2024/03/16 01:57:25;;;;;;;2.95;0.43;;;10.50;99.90;;;;;;4991568;28;20814;-84
2024/03/16 01:59:51;;;;;;;5.18;1.75;;;10.50;99.90;;;;;;4977128;28;20128;-86
2024/03/16 02:02:33;;;;;;;6.70;1.00;;;10.60;99.90;;;;;;4984566;28;20113;-86
2024/03/16 02:05:00;;;;;;;3.92;0.88;;;10.50;99.90;;;;;;4988235;28;20045;-84
2024/03/16 02:07:26;;;;;;;7.22;1.23;;;10.50;99.90;;;;;;4983852;28;20037;-85
2024/03/16 02:09:52;;;;;;;1.55;0.75;;;10.50;99.90;;;;;;4988022;28;20030;-85
2024/03/16 02:12:18;;;;;;;3.65;0.60;;;10.50;99.90;;;;;;4975675;28;20053;-83
2024/03/16 02:14:44;;;;;;;3.55;0.85;;;10.50;99.90;;;;;;4957397;28;20399;-85
2024/03/16 02:17:11;;;;;;;7.30;0.77;;;10.60;99.90;;;;;;4968556;28;20111;-85
2024/03/16 02:19:39;;;;;;;6.95;1.60;;;10.50;99.90;;;;;;4974859;28;20042;-84
2024/03/16 02:22:05;;;;;;;4.07;0.85;;;10.60;99.90;;;;;;4988354;28;20369;-83
2024/03/16 02:24:32;;;;;;;2.03;0.73;;;10.50;99.90;;;;;;4971113;28;20034;-84
2024/03/16 02:26:58;;;;;;;3.95;0.98;;;10.50;99.90;;;;;;4973816;28;20042;-84
2024/03/16 02:29:24;;;;;;;3.65;0.60;;;10.50;99.90;;;;;;4974303;28;20037;-86
2024/03/16 02:31:49;;;;;;;3.80;1.00;;;10.50;99.90;;;;;;4984583;28;20030;-85
2024/03/16 02:34:16;;;;;;;2.50;1.10;;;10.50;99.90;;;;;;4976998;28;20664;-83
2024/03/16 02:36:43;;;;;;;5.97;1.00;;;10.50;99.90;;;;;;4988972;28;20396;-84
2024/03/16 02:39:11;;;;;;;3.53;1.10;;;10.40;99.90;;;;;;4976858;28;20033;-86
2024/03/16 02:41:36;;;;;;;5.95;1.02;;;10.50;99.90;;;;;;4973405;28;20114;-86
2024/03/16 02:44:02;;;;;;;8.57;1.13;;;10.50;99.90;;;;;;4954502;28;20134;-86
2024/03/16 02:46:28;;;;;;;5.53;0.70;;;10.50;99.90;;;;;;4991114;28;20025;-82
2024/03/16 02:48:54;;;;;;;3.08;0.55;;;10.40;99.90;;;;;;4973893;28;20544;-87
2024/03/16 02:51:20;;;;;;;1.90;0.80;;;10.50;99.90;;;;;;4990730;28;20046;-86
2024/03/16 02:53:46;;;;;;;3.20;0.73;;;10.50;99.90;;;;;;4974902;28;20045;-87
2024/03/16 02:56:12;;;;;;;4.75;0.75;;;10.50;99.90;;;;;;4976205;28;20520;-87
2024/03/16 02:58:39;;;;;;;4.28;0.82;;;10.50;99.90;;;;;;4967304;28;20041;-86
2024/03/16 03:01:04;;;;;;;8.80;1.52;;;10.50;99.90;;;;;;4980100;28;20046;-86
2024/03/16 03:03:30;;;;;;;7.47;0.80;;;10.50;99.90;;;;;;4978073;28;20141;-83
2024/03/16 03:05:55;;;;;;;2.78;0.73;;;10.60;99.90;;;;;;4987110;28;20408;-85
2024/03/16 03:08:21;;;;;;;3.17;0.68;;;10.60;99.90;;;;;;4986983;28;20098;-86
2024/03/16 03:10:47;;;;;;;6.22;1.08;;;10.50;99.90;;;;;;4977488;28;20389;-86
2024/03/16 03:13:12;;;;;;;7.95;1.70;;;10.50;99.90;;;;;;4972556;28;20046;-87
2024/03/16 03:15:38;;;;;;;2.10;0.57;;;10.50;99.90;;;;;;4968435;28;20037;-86
2024/03/16 03:18:05;;;;;;;1.52;0.47;;;10.50;99.90;;;;;;4985980;28;20085;-83
2024/03/16 03:20:31;;;;;;;4.40;1.00;;;10.40;99.90;;;;;;4955503;28;20096;-85
2024/03/16 03:22:57;;;;;;;2.55;0.75;;;10.40;99.90;;;;;;4971497;28;20473;-86
2024/03/16 03:25:22;;;;;;;6.95;1.40;;;10.40;99.90;;;;;;4986840;28;20491;-83
2024/03/16 03:27:48;;;;;;;5.32;1.00;;;10.50;99.90;;;;;;4972916;28;20030;-86
2024/03/16 03:30:13;;;;;;;4.55;1.40;;;10.40;99.90;;;;;;4984777;28;20399;-86
2024/03/16 03:32:39;;;;;;;3.85;1.00;;;10.50;99.90;;;;;;4981736;28;20509;-86
2024/03/16 03:35:05;;;;;;;4.25;0.80;;;10.50;99.90;;;;;;4986867;28;20049;-85
2024/03/16 03:37:31;;;;;;;3.60;1.13;;;10.40;99.90;;;;;;4990341;28;20446;-84
2024/03/16 03:39:56;;;;;;;7.28;1.65;;;10.40;99.90;;;;;;4975010;28;20125;-85
2024/03/16 03:42:25;;;;;;;6.95;1.40;;;10.50;99.90;;;;;;4986852;28;20042;-85
2024/03/16 03:45:00;;;;;;;2.70;1.30;;;10.50;99.90;;;;;;4982868;28;22044;-85
2024/03/16 03:47:40;;;;;;;5.68;1.17;;;10.50;99.90;;;;;;4988482;28;20046;-85
2024/03/16 03:50:09;;;;;;;4.35;0.95;;;10.40;99.90;;;;;;4979549;28;20038;-83
2024/03/16 03:52:35;;;;;;;2.75;1.23;;;10.40;99.90;;;;;;4985317;28;20444;-85
2024/03/16 03:55:01;;;;;;;2.88;1.23;;;10.30;99.90;;;;;;4970513;28;20392;-84
2024/03/16 03:57:26;;;;;;;10.93;2.75;;;10.30;99.90;;;;;;4960192;28;20029;-85
2024/03/16 03:59:52;;;;;;;5.10;1.73;;;10.40;99.90;;;;;;4969551;28;20046;-87
2024/03/16 04:02:18;;;;;;;2.30;0.93;;;10.40;99.90;;;;;;4987275;28;20045;-87
2024/03/16 04:04:43;;;;;;;11.27;2.60;;;10.40;99.90;;;;;;4970781;28;20018;-85
2024/03/16 04:07:09;;;;;;;6.30;1.95;;;10.30;99.90;;;;;;4987320;28;20042;-87
2024/03/16 04:09:34;;;;;;;2.92;1.52;;;10.30;99.90;;;;;;4971280;28;20045;-87
2024/03/16 04:12:00;;;;;;;2.30;1.15;;;10.30;99.90;;;;;;4989424;28;20034;-87
2024/03/16 04:14:25;;;;;;;7.03;2.17;;;10.30;99.90;;;;;;4969485;28;20038;-86
2024/03/16 04:16:51;;;;;;;5.80;1.95;;;10.20;99.90;;;;;;4989521;28;20056;-88
2024/03/16 04:19:16;;;;;;;2.30;1.55;;;10.20;99.90;;;;;;4974089;28;20035;-87
2024/03/16 04:21:43;;;;;;;8.32;2.40;;;10.20;99.90;;;;;;4992724;28;20034;-86
2024/03/16 04:24:09;;;;;;;4.82;2.22;;;10.30;99.90;;;;;;4991040;28;20092;-86
2024/03/16 04:26:34;;;;;;;6.07;1.98;;;10.20;99.90;;;;;;4974867;28;20039;-86
2024/03/16 04:29:00;;;;;;;5.47;2.08;;;10.30;99.90;;;;;;4970735;28;20031;-86
2024/03/16 04:31:26;;;;;;;9.43;1.42;;;10.20;99.90;;;;;;4986375;28;20460;-87
2024/03/16 04:33:52;;;;;;;6.28;2.72;;;10.10;99.90;;;;;;4990782;28;20096;-85
2024/03/16 04:36:17;;;;;;;5.03;2.00;;;10.10;99.90;;;;;;4981980;28;20436;-87
2024/03/16 04:38:43;;;;;;;4.55;1.92;;;10.20;99.90;;;;;;4957879;28;20527;-86
2024/03/16 04:41:09;;;;;;;8.88;2.75;;;10.10;99.90;;;;;;4956663;28;20034;-86
2024/03/16 04:43:34;;;;;;;6.68;2.08;;;10.10;99.90;;;;;;4960215;28;20034;-86
2024/03/16 04:46:00;;;;;;;4.93;1.85;;;10.10;99.90;;;;;;4972001;28;20054;-86
2024/03/16 04:48:25;;;;;;;7.57;3.80;;;10.10;99.90;;;;;;4985824;28;20528;-87
2024/03/16 04:50:51;;;;;;;9.63;3.60;;;10.10;99.90;;;;;;4989718;28;20439;-87
2024/03/16 04:53:18;;;;;;;3.42;1.80;;;10.20;99.90;;;;;;4964023;28;20109;-85
2024/03/16 04:55:44;;;;;;;10.27;4.70;;;10.20;99.90;;;;;;4962043;28;20025;-86
2024/03/16 04:58:09;;;;;;;13.25;7.38;;;10.10;99.90;;;;;;4972698;28;20632;-87
2024/03/16 05:00:35;;;;;;;5.18;3.88;;;10.10;99.90;;;;;;4956954;28;20523;-86
2024/03/16 05:03:00;;;;;;;9.70;5.53;;;10.10;99.90;;;;;;4969607;28;20026;-85
2024/03/16 05:05:26;;;;;;;5.63;4.28;;;10.10;99.90;;;;;;4989706;28;20034;-88
2024/03/16 05:07:52;;;;;;;3.63;2.60;;;10.10;99.90;;;;;;4990806;28;20030;-87
2024/03/16 05:10:18;;;;;;;17.90;7.50;;;10.10;99.90;;;;;;4975393;28;20077;-86
2024/03/16 05:12:45;;;;;;;6.60;3.58;;;10.10;99.90;;;;;;4979620;28;20022;-86
2024/03/16 05:15:11;;;;;;;12.38;7.22;;;10.10;99.90;;;;;;4959222;28;20031;-86
2024/03/16 05:17:39;;;;;;;7.78;4.68;;;10.10;99.90;;;;;;4958426;28;20039;-85
2024/03/16 05:20:06;;;;;;;12.82;5.80;;;10.10;99.90;;;;;;4986552;28;20127;-85
2024/03/16 05:22:32;;;;;;;17.10;7.15;;;10.10;99.90;;;;;;4991044;28;20072;-86
2024/03/16 05:24:57;;;;;;;6.70;4.07;;;10.10;99.90;;;;;;4993856;28;20062;-87
2024/03/16 05:27:23;;;;;;;15.02;6.85;;;10.10;99.90;;;;;;4974736;28;20042;-85
2024/03/16 05:29:48;;;;;;;11.38;5.78;;;10.10;99.90;;;;;;4989702;28;20042;-86
2024/03/16 05:32:14;;;;;;;14.98;7.35;;;10.10;99.90;;;;;;4986854;28;20160;-86
2024/03/16 05:34:40;;;;;;;12.00;6.68;;;10.10;99.90;;;;;;4963070;28;20104;-84
2024/03/16 05:37:05;;;;;;;14.95;9.10;;;10.10;99.90;;;;;;4981013;28;20050;-85
2024/03/16 05:39:32;;;;;;;12.85;8.10;;;10.10;99.90;;;;;;4992734;28;20562;-85
2024/03/16 05:41:58;;;;;;;11.15;6.93;;;10.10;99.90;;;;;;4980197;28;20050;-85
2024/03/16 05:44:23;;;;;;;12.93;6.15;;;10.10;99.90;;;;;;4973197;28;20030;-83
2024/03/16 05:46:49;;;;;;;17.85;10.48;;;10.10;99.90;;;;;;4986402;28;20035;-86
2024/03/16 05:49:14;;;;;;;11.43;6.75;;;10.10;99.90;;;;;;4971601;28;20031;-84
2024/03/16 05:51:40;;;;;;;19.05;12.13;;;10.10;99.90;;;;;;4981322;28;20049;-84
2024/03/16 05:54:06;;;;;;;17.75;9.95;;;9.90;99.90;;;;;;4986726;28;20027;-84
2024/03/16 05:56:32;;;;;;;21.42;10.68;;;9.90;99.90;;;;;;4960873;28;20042;-85
2024/03/16 05:58:58;;;;;;;19.92;9.60;;;9.90;99.90;;;;;;4974446;28;20448;-82
2024/03/16 06:01:24;;;;;;;24.08;11.18;;;9.80;99.90;;;;;;4975693;28;20045;-87
2024/03/16 06:03:50;;;;;;;18.88;9.13;;;9.80;99.90;;;;;;4972348;28;20030;-84
2024/03/16 06:06:15;;;;;;;19.67;11.70;;;9.80;99.90;;;;;;4982179;28;20118;-86
2024/03/16 06:08:41;;;;;;;22.42;11.23;;;9.80;99.90;;;;;;4981058;28;20038;-85
2024/03/16 06:11:08;;;;;;;13.52;8.43;;;9.70;99.90;;;;;;4990093;28;20041;-84
2024/03/16 06:13:33;;;;;;;18.13;8.65;;;9.70;99.90;;;;;;4989579;28;20034;-83
2024/03/16 06:15:59;;;;;;;20.52;8.93;;;9.70;99.90;;;;;;4985799;28;20515;-86
2024/03/16 06:18:24;;;;;;;15.73;8.57;;;9.60;99.90;;;;;;4989618;28;20045;-85
2024/03/16 06:20:50;;;;;;;21.75;10.95;;;9.70;99.90;;;;;;4973016;28;20388;-86
2024/03/16 06:23:17;;;;;;;24.10;12.48;;;9.60;99.90;;;;;;4963547;28;20029;-84
2024/03/16 06:25:50;;;;;;;19.63;12.40;;;9.60;99.90;;;;;;4972810;28;20069;-87
2024/03/16 06:28:21;;;;;;;26.45;13.13;;;9.50;99.90;;;;;;4986843;28;20528;-85
2024/03/16 06:30:55;;;;;;;27.50;13.38;;;9.50;99.90;;;;;;4967189;28;20488;-86
2024/03/16 06:33:27;;;;;;;18.48;10.70;;;9.50;99.90;;;;;;4965977;28;20600;-86
2024/03/16 06:35:53;;;;;;;24.38;11.65;;;9.50;99.90;;;;;;4985638;28;20492;-87
2024/03/16 06:38:19;;;;;;;21.13;10.18;;;9.40;99.90;;;;;;4975881;28;20030;-84
2024/03/16 06:40:45;;;;;;;19.05;12.13;;;9.50;99.90;;;;;;4969131;28;20036;-88
2024/03/16 06:43:10;;;;;;;24.23;11.52;;;9.40;99.90;;;;;;4990754;28;20073;-87
2024/03/16 06:45:36;;;;;;;21.42;11.15;;;9.40;99.90;;;;;;4971548;28;20187;-84
2024/03/16 06:48:02;;;;;;;16.25;10.88;;;9.40;99.90;;;;;;4978432;28;20038;-88
2024/03/16 06:50:27;;;;;;;14.60;9.43;;;9.40;99.90;;;;;;4973345;28;20034;-88
2024/03/16 06:52:53;;;;;;;18.15;10.32;;;9.30;99.90;;;;;;4987432;28;20030;-88
2024/03/16 06:55:19;;;;;;;15.15;9.63;;;9.30;99.90;;;;;;4956197;28;20046;-88
2024/03/16 06:57:44;;;;;;;17.23;9.25;;;9.30;99.90;;;;;;4957292;28;20042;-89
2024/03/16 07:00:11;;;;;;;14.05;8.88;;;9.30;99.90;;;;;;4989747;28;20064;-87
2024/03/16 07:02:36;;;;;;;15.45;8.50;;;9.30;99.90;;;;;;4970796;28;20041;-86
2024/03/16 07:05:02;;;;;;;11.35;7.65;;;9.40;99.90;;;;;;4970784;28;20030;-89
2024/03/16 07:07:28;;;;;;;15.18;6.85;;;9.40;99.90;;;;;;4970363;28;20511;-86
2024/03/16 07:09:54;;;;;;;13.45;6.88;;;9.40;99.90;;;;;;4982369;28;20026;-86
2024/03/16 07:12:21;;;;;;;8.65;6.07;;;9.30;99.90;;;;;;5007791;28;20402;-86
2024/03/16 07:14:46;;;;;;;11.02;5.07;;;9.30;99.90;;;;;;4986275;28;20476;-86
2024/03/16 07:17:12;;;;;;;6.13;4.82;;;9.30;99.90;;;;;;4986742;28;20092;-86
2024/03/16 07:19:38;;;;;;;9.02;5.40;;;9.30;99.90;;;;;;4972145;28;20037;-85
2024/03/16 07:22:03;;;;;;;9.40;4.25;;;9.30;99.90;;;;;;4987732;28;20127;-86
2024/03/16 07:24:29;;;;;;;7.22;3.85;;;9.40;99.90;;;;;;4972890;28;20037;-86
2024/03/16 07:26:54;;;;;;;7.03;4.25;;;9.40;99.90;;;;;;4959646;28;20030;-86
2024/03/16 07:29:21;;;;;;;6.20;3.53;;;9.40;99.90;;;;;;4988318;28;20031;-87
2024/03/16 07:31:49;;;;;;;5.53;3.75;;;9.40;99.90;;;;;;4985471;28;20089;-87
2024/03/16 07:34:16;;;;;;;5.13;3.47;;;9.40;99.90;;;;;;4987782;28;20058;-87
2024/03/16 07:36:42;;;;;;;7.45;4.38;;;9.30;99.90;;;;;;4963619;28;20034;-86
2024/03/16 07:39:08;;;;;;;6.20;3.63;;;9.30;99.90;;;;;;4987765;28;20030;-82
2024/03/16 07:41:34;;;;;;;6.32;4.35;;;9.30;99.90;;;;;;4973482;28;20391;-88
2024/03/16 07:44:00;;;;;;;8.40;4.60;;;9.30;99.90;;;;;;4989191;28;20121;-86
2024/03/16 07:46:26;;;;;;;5.88;4.32;;;9.30;99.90;;;;;;4987472;28;20130;-85
2024/03/16 07:49:03;;;;;;;6.57;4.80;;;9.30;99.90;;;;;;4961501;28;20060;-88
2024/03/16 07:51:29;;;;;;;8.05;5.28;;;9.20;99.90;;;;;;4992187;28;20033;-88
2024/03/16 07:53:55;;;;;;;5.75;3.67;;;9.30;99.90;;;;;;4997282;28;20029;-86
2024/03/16 07:56:21;;;;;;;4.43;3.50;;;9.30;99.90;;;;;;5004973;28;20064;-86
2024/03/16 07:58:47;;;;;;;5.00;3.35;;;9.30;99.90;;;;;;4994841;28;20049;-89
2024/03/16 08:01:13;;;;;;;4.93;3.05;;;9.30;99.90;;;;;;5008779;28;20467;-88
2024/03/16 08:03:38;;;;;;;4.80;2.80;;;9.40;99.90;;;;;;4975978;28;20033;-84
2024/03/16 08:06:07;;;;;;;6.53;3.08;;;9.40;99.90;;;;;;4988633;28;20029;-87
2024/03/16 08:08:35;;;;;;;4.32;2.40;;;9.40;99.90;;;;;;4977308;28;20031;-87
2024/03/16 08:11:01;;;;;;;8.88;3.00;;;9.50;99.90;;;;;;4972925;28;20026;-88
2024/03/16 08:13:27;;;;;;;7.40;3.10;;;9.50;99.90;;;;;;4986664;28;20045;-85
2024/03/16 08:15:53;;;;;;;4.57;3.05;;;9.40;99.90;;;;;;4977460;28;20026;-86
2024/03/16 08:18:18;;;;;;;5.68;3.00;;;9.40;99.90;;;;;;4970532;28;20503;-89
2024/03/16 08:20:44;;;;;;;4.78;2.42;;;9.50;99.90;;;;;;4976249;28;20463;-90
2024/03/16 08:23:09;;;;;;;5.63;2.50;;;9.50;99.90;;;;;;4976279;28;20034;-86
2024/03/16 08:25:35;;;;;;;8.15;2.30;;;9.50;99.90;;;;;;4974636;28;20030;-89
2024/03/16 08:28:01;;;;;;;4.88;1.55;;;9.40;99.90;;;;;;4973836;28;20030;-88
2024/03/16 08:30:26;;;;;;;3.47;1.50;;;9.40;99.90;;;;;;4955171;28;20031;-91
2024/03/16 08:32:52;;;;;;;3.25;1.08;;;9.40;99.90;;;;;;4972619;28;20034;-89
2024/03/16 08:35:18;;;;;;;8.05;1.58;;;9.40;99.90;;;;;;4971248;28;20484;-89
2024/03/16 08:37:44;;;;;;;2.13;1.15;;;9.40;99.90;;;;;;4991972;28;20087;-87
2024/03/16 08:40:12;;;;;;;3.60;1.58;;;9.40;99.90;;;;;;4988583;28;20043;-87
2024/03/16 08:42:42;;;;;;;6.47;1.50;;;9.40;99.90;;;;;;4958363;28;20045;-79
2024/03/16 08:45:07;;;;;;;5.07;1.40;;;9.40;99.90;;;;;;4958928;28;20030;-79
2024/03/16 08:47:34;;;;;;;3.25;1.42;;;9.40;99.90;;;;;;4963475;28;20042;-77
2024/03/16 08:49:59;;;;;;;4.53;1.63;;;9.20;99.90;;;;;;4986201;28;20093;-79
2024/03/16 08:52:26;;;;;;;6.38;1.60;;;9.20;99.90;;;;;;4976520;28;20488;-79
2024/03/16 08:54:55;;;;;;;7.90;1.30;;;9.30;99.90;;;;;;4995811;28;20038;-80
2024/03/16 08:57:23;;;;;;;3.10;1.13;;;9.40;99.90;;;;;;4979885;28;20030;-78
2024/03/16 08:59:49;;;;;;;3.03;1.17;;;9.40;99.90;;;;;;4970740;28;20506;-79
2024/03/16 09:02:14;;;;;;;6.47;1.88;;;9.50;99.90;;;;;;4971803;28;20132;-78
2024/03/16 09:04:40;;;;;;;4.03;1.20;;;9.50;99.90;;;;;;4973746;28;20037;-79
2024/03/16 09:07:05;;;;;;;2.13;0.85;;;9.60;99.90;;;;;;4972749;28;20483;-79
2024/03/16 09:09:31;;;;;;;4.80;1.38;;;9.60;99.90;;;;;;4974315;28;20031;-78
2024/03/16 09:11:58;;;;;;;3.30;0.90;;;9.80;99.90;;;;;;4979385;28;20045;-78
2024/03/16 09:14:23;;;;;;;10.27;1.35;;;9.80;99.90;;;;;;4991778;28;20034;-79
2024/03/16 09:16:49;;;;;;;7.70;1.42;;;9.80;99.90;;;;;;5009017;28;20411;-78
2024/03/16 09:19:14;;;;;;;7.43;2.95;;;10.00;99.90;;;;;;4983747;28;20428;-78
2024/03/16 09:21:40;;;;;;;8.50;2.50;;;10.20;99.90;;;;;;4986637;28;20149;-79
2024/03/16 09:24:06;;;;;;;5.97;2.00;;;10.20;99.90;;;;;;4973822;28;20522;-78
2024/03/16 09:26:32;;;;;;;4.15;2.38;;;10.20;99.90;;;;;;4987117;28;20250;-78
2024/03/16 09:28:57;;;;;;;7.45;2.60;;;10.30;99.90;;;;;;4961163;28;20492;-78
2024/03/16 09:31:26;;;;;;;8.35;2.88;;;10.40;99.90;;;;;;4983476;28;20029;-78
2024/03/16 09:33:51;;;;;;;5.55;2.15;;;10.50;99.90;;;;;;4992848;28;20399;-78
2024/03/16 09:36:17;;;;;;;6.90;2.28;;;10.50;99.90;;;;;;4977665;28;20027;-78
2024/03/16 09:38:42;;;;;;;6.50;1.88;;;10.70;99.90;;;;;;4988667;28;20117;-77
2024/03/16 09:41:13;;;;;;;5.68;1.25;;;10.70;99.90;;;;;;4969544;28;20109;-78
2024/03/16 09:43:38;;;;;;;4.55;1.13;;;10.80;99.90;;;;;;4985782;28;20488;-78
2024/03/16 09:46:05;;;;;;;3.72;1.30;;;10.90;99.90;;;;;;4973533;28;20185;-78
2024/03/16 09:48:31;;;;;;;6.03;1.70;;;10.90;99.90;;;;;;4972680;28;20558;-79
2024/03/16 09:50:56;;;;;;;5.93;1.88;;;10.90;99.90;;;;;;4972776;28;20062;-78
2024/03/16 09:53:32;;;;;;;2.55;2.20;;;10.90;99.90;;;;;;4975023;28;20018;-77
2024/03/16 09:56:09;;;;;;;;;;;10.80;99.90;;;;;;4989567;28;20053;-79
2024/03/16 09:58:35;;;;;;;5.38;1.48;;;10.60;99.90;;;;;;4978887;28;20620;-78
2024/03/16 10:01:01;;;;;;;5.88;1.10;;;10.40;99.90;;;;;;4989430;28;20045;-78
2024/03/16 10:03:27;;;;;;;5.88;1.77;;;10.30;99.90;;;;;;4959884;28;20033;-79
2024/03/16 10:05:52;;;;;;;9.48;2.45;;;10.00;99.90;;;;;;4974391;28;20034;-77
2024/03/16 10:08:20;;;;;;;7.57;2.30;;;9.90;99.90;;;;;;4972864;28;20084;-78
2024/03/16 10:10:49;;;;;;;6.72;2.42;;;9.90;99.90;;;;;;4969126;28;20034;-78
2024/03/16 10:13:15;;;;;;;8.65;2.92;;;9.90;99.90;;;;;;4973040;28;20058;-78
2024/03/16 10:15:44;;;;;;;8.60;2.25;;;9.90;99.90;;;;;;4959109;28;20038;-78
2024/03/16 10:18:10;;;;;;;6.13;3.30;;;9.70;99.90;;;;;;4966825;28;20037;-79
2024/03/16 10:20:36;;;;;;;7.10;2.58;;;9.70;99.90;;;;;;4955407;28;20480;-78
2024/03/16 10:23:02;;;;;;;8.15;2.15;;;9.70;99.90;;;;;;4969952;28;20031;-79
2024/03/16 10:25:27;;;;;;;8.15;2.45;;;9.80;99.90;;;;;;4967092;28;20121;-78
2024/03/16 10:27:54;;;;;;;9.63;2.67;;;9.90;99.90;;;;;;4970646;28;20034;-78
2024/03/16 10:30:20;;;;;;;7.18;2.38;;;9.80;99.90;;;;;;4984665;28;20038;-79
2024/03/16 10:32:49;;;;;;;9.10;3.28;;;10.00;99.90;;;;;;4966992;28;20037;-78
2024/03/16 10:35:32;;;;;;;10.82;3.83;;;10.00;99.90;;;;;;4987160;28;20034;-78
2024/03/16 10:37:57;;;;;;;5.35;2.28;;;10.10;99.90;;;;;;4973485;28;20476;-79
2024/03/16 10:40:24;;;;;;;9.63;3.67;;;10.10;99.90;;;;;;4985332;28;20041;-78
2024/03/16 10:42:51;;;;;;;6.50;2.78;;;10.00;99.90;;;;;;4979057;28;20049;-78
2024/03/16 10:45:17;;;;;;;6.35;1.88;;;9.90;99.90;;;;;;4955551;28;20518;-78
2024/03/16 10:47:44;;;;;;;6.72;1.85;;;9.70;99.90;;;;;;4986875;28;20038;-79
2024/03/16 10:50:10;;;;;;;9.35;2.28;;;9.70;99.90;;;;;;4974910;28;20061;-79
2024/03/16 10:52:43;;;;;;;6.38;1.30;;;9.90;99.90;;;;;;4989326;28;20046;-79
2024/03/16 10:55:10;;;;;;;3.78;1.38;;;9.90;99.90;;;;;;4970042;28;20488;-78
2024/03/16 10:57:36;;;;;;;4.40;0.80;;;10.00;99.90;;;;;;4982069;28;20034;-78
2024/03/16 11:00:12;;;;;;;4.35;1.52;;;10.00;99.90;;;;;;4987953;28;20041;-79
2024/03/16 11:03:07;;;;;;;2.05;0.93;;;10.00;99.90;;;;;;4968905;28;20170;-77
2024/03/16 11:05:35;;;;;;;2.50;0.80;;;10.10;99.90;;;;;;4982210;28;20041;-77
2024/03/16 11:08:23;;;;;;;4.97;0.70;;;10.20;99.90;;;;;;4954315;28;20034;-77
2024/03/16 11:10:48;;;;;;;3.83;0.82;;;10.20;99.90;;;;;;4985825;28;20511;-77
2024/03/16 11:13:18;;;;;;;3.53;0.60;;;10.30;99.90;;;;;;4983870;28;20026;-77
2024/03/16 11:15:47;;;;;;;3.72;0.90;;;10.50;99.90;;;;;;4981950;28;20042;-77
2024/03/16 11:18:17;;;;;;;3.33;0.70;;;10.60;99.90;;;;;;4988130;28;20030;-77
2024/03/16 11:20:55;;;;;;;4.63;0.85;;;10.60;99.90;;;;;;4979378;28;20042;-77
2024/03/16 11:23:22;;;;;;;4.60;0.52;;;10.80;99.90;;;;;;4981592;28;20061;-77
2024/03/16 11:25:48;;;;;;;3.50;0.70;;;10.90;99.90;;;;;;4986246;28;20101;-78
2024/03/16 11:28:14;;;;;;;5.25;0.95;;;11.00;99.90;;;;;;4971613;28;20084;-77
2024/03/16 11:30:40;;;;;;;2.33;0.63;;;11.10;99.90;;;;;;4969405;28;20500;-77
2024/03/16 11:33:18;;;;;;;1.50;0.77;;;11.20;99.90;;;;;;4968946;28;20031;-77
2024/03/16 11:35:44;;;;;;;2.65;0.95;;;11.20;99.90;;;;;;4965350;28;20034;-77
2024/03/16 11:38:10;;;;;;;1.40;0.70;;;11.20;99.90;;;;;;4954525;28;20524;-77
2024/03/16 11:40:38;;;;;;;1.52;1.00;;;11.20;99.90;;;;;;4984665;28;20041;-79
2024/03/16 11:43:05;;;;;;;3.55;1.08;;;11.20;99.90;;;;;;4989261;28;20049;-79
2024/03/16 11:45:33;;;;;;;2.90;1.00;;;11.10;99.90;;;;;;4955988;28;20042;-78
2024/03/16 11:48:00;;;;;;;2.03;0.75;;;11.00;99.90;;;;;;4985532;28;20047;-78
2024/03/16 11:50:26;;;;;;;2.13;0.90;;;10.80;99.90;;;;;;4953093;28;20419;-78
2024/03/16 11:52:52;;;;;;;2.72;0.73;;;10.60;99.90;;;;;;4985707;28;20026;-77
2024/03/16 11:55:21;;;;;;;5.22;1.00;;;10.70;99.90;;;;;;4988193;28;20045;-79
2024/03/16 11:57:52;;;;;;;1.95;0.68;;;10.80;99.90;;;;;;4956696;28;20460;-78
2024/03/16 12:00:17;;;;;;;1.20;0.50;;;10.90;99.90;;;;;;4987367;28;20030;-78
2024/03/16 12:02:46;;;;;;;3.08;0.70;;;11.00;99.90;;;;;;4983697;28;20039;-79
2024/03/16 12:05:13;;;;;;;3.13;0.93;;;11.20;99.90;;;;;;4972090;28;20091;-79
2024/03/16 12:07:39;;;;;;;7.72;0.80;;;11.30;99.90;;;;;;4965247;28;20038;-78
2024/03/16 12:10:08;;;;;;;5.93;1.25;;;11.50;99.90;;;;;;4967582;28;20489;-78
2024/03/16 12:12:35;;;;;;;2.15;0.60;;;11.60;99.90;;;;;;4968448;28;20037;-79
2024/03/16 12:15:14;;;;;;;4.85;0.90;;;11.60;99.90;;;;;;4969110;28;20046;-78
2024/03/16 12:17:49;;;;;;;2.83;0.70;;;11.80;99.90;;;;;;5001546;28;20495;-78
2024/03/16 12:20:18;;;;;;;4.47;1.00;;;11.90;99.90;;;;;;4973076;28;20034;-77
2024/03/16 12:22:44;;;;;;;6.50;1.35;;;12.20;99.90;;;;;;4974554;28;20400;-78
2024/03/16 12:25:10;;;;;;;2.15;0.75;;;12.40;99.90;;;;;;4952729;28;20030;-78
2024/03/16 12:27:39;;;;;;;6.35;0.95;;;12.40;99.90;;;;;;4613762;28;10000014;-78
2024/03/16 12:30:05;;;;;;;2.88;0.75;;;12.50;99.90;;;;;;4943949;28;20041;-79
2024/03/16 12:32:32;;;;;;;4.78;0.95;;;12.60;99.90;;;;;;4970526;28;20443;-79
2024/03/16 12:35:00;;;;;;;3.33;1.05;;;12.80;99.90;;;;;;4964283;28;20497;-78
2024/03/16 12:37:25;;;;;;;2.88;0.60;;;12.90;99.90;;;;;;4982897;28;20030;-78
2024/03/16 12:39:51;;;;;;;3.65;1.20;;;12.90;99.90;;;;;;4967763;28;20027;-79
2024/03/16 12:42:16;;;;;;;4.68;1.10;;;13.00;99.90;;;;;;4967420;28;20034;-78
2024/03/16 12:44:46;;;;;;;3.47;0.88;;;13.00;99.90;;;;;;4983031;28;20034;-78